createdAt,value
2018-04-26T00:01:06.766Z,9.67
2018-04-26T00:03:34.624Z,9.63
2018-04-26T00:06:02.324Z,7.50
2018-04-26T00:08:30.194Z,10.83
2018-04-26T00:10:57.740Z,12.77
2018-04-26T00:13:25.710Z,10.23
2018-04-26T00:15:53.325Z,8.67
2018-04-26T00:18:20.877Z,9.83
2018-04-26T00:20:49.411Z,9.13
2018-04-26T00:23:17.183Z,8.77
2018-04-26T00:25:44.742Z,8.20
2018-04-26T00:28:12.474Z,6.53
2018-04-26T00:30:40.080Z,10.93
2018-04-26T00:33:07.637Z,11.37
2018-04-26T00:35:35.216Z,8.87
2018-04-26T00:38:02.800Z,6.70
2018-04-26T00:40:30.348Z,9.30
2018-04-26T00:42:58.404Z,9.53
2018-04-26T00:45:25.951Z,12.13
2018-04-26T00:47:54.262Z,7.13
2018-04-26T00:50:22.260Z,6.97
2018-04-26T00:52:49.800Z,8.80
2018-04-26T00:55:17.521Z,11.60
2018-04-26T00:57:45.119Z,9.90
2018-04-26T01:00:12.668Z,10.90
2018-04-26T01:02:40.319Z,9.10
2018-04-26T01:05:08.065Z,7.23
2018-04-26T01:07:36.509Z,11.37
2018-04-26T01:10:04.233Z,11.33
2018-04-26T01:12:32.012Z,8.30
2018-04-26T01:14:59.548Z,9.43
2018-04-26T01:17:27.120Z,8.80
2018-04-26T01:19:54.820Z,11.67
2018-04-26T01:22:22.417Z,9.53
2018-04-26T01:24:50.084Z,8.67
2018-04-26T01:27:17.800Z,7.70
2018-04-26T01:29:45.634Z,9.07
2018-04-26T01:32:13.179Z,10.67
2018-04-26T01:34:40.772Z,11.47
2018-04-26T01:37:20.089Z,12.00
2018-04-26T01:39:47.702Z,10.53
2018-04-26T01:42:15.249Z,9.00
2018-04-26T01:44:42.884Z,10.63
2018-04-26T01:47:10.469Z,10.90
2018-04-26T01:49:38.213Z,8.23
2018-04-26T01:52:06.084Z,7.50
2018-04-26T01:54:33.737Z,10.67
2018-04-26T01:57:01.339Z,7.90
2018-04-26T01:59:29.060Z,8.30
2018-04-26T02:01:56.760Z,7.70
2018-04-26T02:04:25.352Z,9.33
2018-04-26T02:06:52.900Z,10.20
2018-04-26T02:09:21.252Z,7.00
2018-04-26T02:11:48.944Z,8.07
2018-04-26T02:14:16.497Z,10.17
2018-04-26T02:16:45.121Z,9.30
2018-04-26T02:19:12.958Z,11.93
2018-04-26T02:21:40.613Z,14.10
2018-04-26T02:24:08.321Z,22.57
2018-04-26T02:26:35.996Z,18.43
2018-04-26T02:29:03.650Z,12.33
2018-04-26T02:31:31.243Z,11.87
2018-04-26T02:33:58.981Z,12.17
2018-04-26T02:36:26.842Z,10.63
2018-04-26T02:38:54.752Z,10.57
2018-04-26T02:41:22.302Z,10.17
2018-04-26T02:43:49.909Z,9.30
2018-04-26T02:46:17.760Z,10.27
2018-04-26T02:48:45.352Z,10.83
2018-04-26T02:51:13.772Z,11.23
2018-04-26T02:53:41.474Z,9.00
2018-04-26T02:56:09.156Z,14.00
2018-04-26T02:58:36.702Z,13.17
2018-04-26T03:01:04.276Z,8.30
2018-04-26T03:03:31.842Z,10.20
2018-04-26T03:05:59.379Z,9.17
2018-04-26T03:08:26.997Z,11.47
2018-04-26T03:10:54.651Z,10.13
2018-04-26T03:13:22.372Z,11.50
2018-04-26T03:15:50.282Z,12.70
2018-04-26T03:18:17.847Z,12.17
2018-04-26T03:20:45.384Z,10.90
2018-04-26T03:23:13.753Z,31.63
2018-04-26T03:25:41.628Z,44.27
2018-04-26T03:28:09.356Z,37.30
2018-04-26T03:30:37.701Z,28.17
2018-04-26T03:33:05.256Z,28.47
2018-04-26T03:35:33.015Z,21.90
2018-04-26T03:38:00.678Z,26.83
2018-04-26T03:40:28.239Z,21.87
2018-04-26T03:42:55.933Z,28.17
2018-04-26T03:45:23.596Z,21.73
2018-04-26T03:47:51.457Z,29.70
2018-04-26T03:50:19.004Z,27.87
2018-04-26T03:52:46.824Z,24.07
2018-04-26T03:55:15.299Z,13.20
2018-04-26T03:57:43.785Z,16.47
2018-04-26T04:00:23.900Z,14.83
2018-04-26T04:03:03.911Z,19.40
2018-04-26T04:05:35.973Z,22.47
2018-04-26T04:08:03.644Z,22.83
2018-04-26T04:10:31.192Z,26.53
2018-04-26T04:12:59.033Z,23.23
2018-04-26T04:15:27.382Z,16.90
2018-04-26T04:17:54.923Z,11.83
2018-04-26T04:20:22.521Z,33.93
2018-04-26T04:22:50.249Z,17.50
2018-04-26T04:25:17.848Z,13.73
2018-04-26T04:27:45.545Z,14.00
2018-04-26T04:30:13.436Z,11.77
2018-04-26T04:32:41.757Z,11.67
2018-04-26T04:35:09.580Z,18.20
2018-04-26T04:37:38.066Z,16.40
2018-04-26T04:40:05.643Z,18.10
2018-04-26T04:42:33.352Z,15.73
2018-04-26T04:45:01.041Z,11.13
2018-04-26T04:47:28.584Z,14.23
2018-04-26T04:49:56.365Z,13.30
2018-04-26T04:52:25.016Z,15.07
2018-04-26T04:54:52.882Z,14.33
2018-04-26T04:57:20.968Z,12.60
2018-04-26T04:59:48.601Z,11.73
2018-04-26T05:02:16.508Z,12.47
2018-04-26T05:04:44.122Z,10.67
2018-04-26T05:07:11.833Z,10.97
2018-04-26T05:09:39.498Z,9.23
2018-04-26T05:12:07.407Z,15.63
2018-04-26T05:14:35.201Z,15.10
2018-04-26T05:17:02.881Z,17.33
2018-04-26T05:19:30.474Z,16.70
2018-04-26T05:21:58.548Z,12.47
2018-04-26T05:24:26.101Z,16.90
2018-04-26T05:26:54.465Z,14.50
2018-04-26T05:29:22.014Z,13.47
2018-04-26T05:31:49.564Z,14.50
2018-04-26T05:34:17.404Z,20.70
2018-04-26T05:36:44.960Z,14.23
2018-04-26T05:39:12.520Z,12.80
2018-04-26T05:41:40.189Z,14.67
2018-04-26T05:44:07.755Z,28.83
2018-04-26T05:46:35.464Z,30.47
2018-04-26T05:49:04.159Z,16.73
2018-04-26T05:51:31.707Z,14.87
2018-04-26T05:53:59.332Z,13.00
2018-04-26T05:56:27.162Z,14.30
2018-04-26T05:58:55.208Z,12.47
2018-04-26T06:01:23.204Z,12.03
2018-04-26T06:03:51.121Z,13.27
2018-04-26T06:06:18.660Z,15.53
2018-04-26T06:08:46.247Z,14.43
2018-04-26T06:11:14.932Z,9.67
2018-04-26T06:13:42.464Z,13.67
2018-04-26T06:16:10.028Z,12.00
2018-04-26T06:18:38.265Z,10.80
2018-04-26T06:21:05.986Z,16.03
2018-04-26T06:23:34.320Z,15.13
2018-04-26T06:26:02.143Z,16.30
2018-04-26T06:28:29.718Z,12.30
2018-04-26T06:30:57.292Z,13.13
2018-04-26T06:33:25.047Z,9.83
2018-04-26T06:35:52.760Z,13.30
2018-04-26T06:38:21.479Z,11.33
2018-04-26T06:40:49.154Z,13.90
2018-04-26T06:43:16.722Z,9.93
2018-04-26T06:45:44.404Z,12.97
2018-04-26T06:48:12.334Z,9.63
2018-04-26T06:50:39.905Z,8.87
2018-04-26T06:53:07.599Z,8.80
2018-04-26T06:55:35.318Z,8.27
2018-04-26T06:58:02.864Z,10.90
2018-04-26T07:00:30.859Z,7.00
2018-04-26T07:02:58.684Z,10.60
2018-04-26T07:05:27.004Z,9.70
2018-04-26T07:07:54.560Z,8.47
2018-04-26T07:10:22.418Z,9.77
2018-04-26T07:12:49.970Z,8.93
2018-04-26T07:15:17.520Z,9.70
2018-04-26T07:17:45.112Z,7.63
2018-04-26T07:20:12.904Z,6.00
2018-04-26T07:22:40.567Z,5.93
2018-04-26T07:25:08.206Z,6.67
2018-04-26T07:27:35.754Z,11.30
2018-04-26T07:30:03.512Z,6.87
2018-04-26T07:32:31.624Z,7.83
2018-04-26T07:34:59.939Z,6.97
2018-04-26T07:37:27.517Z,6.77
2018-04-26T07:39:55.265Z,4.37
2018-04-26T07:42:22.997Z,6.27
2018-04-26T07:44:51.197Z,8.97
2018-04-26T07:47:18.995Z,13.33
2018-04-26T07:49:46.821Z,6.00
2018-04-26T07:52:14.584Z,8.73
2018-04-26T07:54:42.177Z,9.97
2018-04-26T07:57:09.715Z,8.27
2018-04-26T07:59:37.769Z,11.83
2018-04-26T08:02:06.394Z,8.83
2018-04-26T08:04:33.961Z,7.73
2018-04-26T08:07:03.096Z,9.70
2018-04-26T08:09:30.689Z,7.50
2018-04-26T08:11:58.236Z,12.00
2018-04-26T08:14:25.794Z,9.70
2018-04-26T08:16:53.372Z,8.00
2018-04-26T08:19:21.447Z,13.33
2018-04-26T08:21:49.349Z,8.90
2018-04-26T08:24:17.733Z,18.87
2018-04-26T08:26:45.406Z,13.57
2018-04-26T08:29:12.998Z,8.23
2018-04-26T08:31:40.985Z,12.67
2018-04-26T08:34:09.557Z,15.37
2018-04-26T08:36:37.361Z,10.83
2018-04-26T08:39:05.766Z,10.87
2018-04-26T08:41:33.533Z,14.70
2018-04-26T08:44:01.082Z,10.60
2018-04-26T08:46:28.665Z,12.37
2018-04-26T08:48:56.405Z,14.13
2018-04-26T08:51:24.161Z,9.00
2018-04-26T08:53:51.761Z,9.33
2018-04-26T08:56:19.394Z,13.40
2018-04-26T08:58:47.103Z,9.67
2018-04-26T09:01:14.744Z,13.43
2018-04-26T09:03:43.024Z,11.03
2018-04-26T09:06:10.590Z,9.83
2018-04-26T09:08:38.334Z,10.13
2018-04-26T09:11:05.880Z,8.50
2018-04-26T09:13:33.622Z,26.80
2018-04-26T09:16:01.223Z,20.83
2018-04-26T09:18:28.795Z,12.57
2018-04-26T09:20:56.457Z,9.53
2018-04-26T09:23:24.148Z,8.20
2018-04-26T09:25:52.590Z,8.97
2018-04-26T09:28:20.400Z,6.83
2018-04-26T09:30:47.983Z,9.00
2018-04-26T09:33:15.525Z,7.50
2018-04-26T09:35:43.090Z,7.63
2018-04-26T09:38:10.740Z,9.27
2018-04-26T09:40:38.291Z,6.20
2018-04-26T09:43:05.846Z,9.90
2018-04-26T09:45:34.215Z,7.63
2018-04-26T09:48:01.765Z,6.90
2018-04-26T09:50:29.420Z,7.63
2018-04-26T09:52:57.169Z,6.03
2018-04-26T09:55:25.758Z,6.87
2018-04-26T09:57:53.320Z,6.37
2018-04-26T10:00:28.452Z,5.40
2018-04-26T10:02:56.664Z,5.97
2018-04-26T10:05:29.899Z,7.53
2018-04-26T10:07:57.456Z,7.60
2018-04-26T10:10:25.055Z,3.60
2018-04-26T10:12:53.516Z,6.27
2018-04-26T10:15:21.067Z,4.57
2018-04-26T10:17:48.613Z,4.13
2018-04-26T10:20:16.223Z,4.40
2018-04-26T10:22:43.786Z,4.50
2018-04-26T10:25:12.164Z,4.83
2018-04-26T10:27:39.879Z,4.20
2018-04-26T10:30:07.912Z,4.50
2018-04-26T10:32:35.538Z,6.17
2018-04-26T10:35:03.142Z,5.07
2018-04-26T10:37:30.686Z,8.00
2018-04-26T10:39:58.584Z,7.63
2018-04-26T10:42:26.216Z,4.93
2018-04-26T10:44:53.786Z,5.53
2018-04-26T10:47:21.339Z,5.50
2018-04-26T10:49:49.039Z,3.97
2018-04-26T10:52:16.647Z,5.57
2018-04-26T10:54:44.229Z,5.77
2018-04-26T10:57:12.236Z,7.23
2018-04-26T10:59:39.928Z,5.87
2018-04-26T11:02:07.567Z,4.00
2018-04-26T11:04:36.075Z,5.23
2018-04-26T11:07:04.053Z,4.10
2018-04-26T11:09:31.605Z,4.73
2018-04-26T11:11:59.460Z,5.30
2018-04-26T11:14:28.127Z,4.30
2018-04-26T11:16:56.452Z,6.57
2018-04-26T11:19:24.289Z,4.70
2018-04-26T11:21:52.108Z,5.60
2018-04-26T11:24:19.660Z,7.30
2018-04-26T11:26:47.480Z,8.20
2018-04-26T11:29:15.047Z,6.17
2018-04-26T11:31:42.889Z,7.80
2018-04-26T11:34:10.815Z,4.50
2018-04-26T11:36:38.629Z,4.60
2018-04-26T11:39:06.556Z,6.87
2018-04-26T11:41:34.453Z,4.70
2018-04-26T11:44:02.056Z,20.73
2018-04-26T11:46:29.780Z,11.23
2018-04-26T11:48:58.197Z,8.67
2018-04-26T11:51:26.088Z,3.77
2018-04-26T11:53:54.068Z,4.37
2018-04-26T11:56:23.468Z,5.27
2018-04-26T11:58:51.143Z,4.97
2018-04-26T12:01:19.455Z,4.60
2018-04-26T12:03:47.322Z,5.13
2018-04-26T12:06:14.944Z,5.33
2018-04-26T12:08:43.853Z,7.37
2018-04-26T12:11:11.467Z,5.07
2018-04-26T12:13:39.031Z,9.57
2018-04-26T12:16:06.753Z,10.40
2018-04-26T12:18:34.527Z,11.30
2018-04-26T12:21:02.082Z,7.87
2018-04-26T12:23:29.644Z,7.83
2018-04-26T12:25:57.232Z,10.47
2018-04-26T12:28:25.237Z,7.83
2018-04-26T12:30:53.121Z,7.47
2018-04-26T12:33:21.017Z,7.70
2018-04-26T12:35:48.901Z,7.60
2018-04-26T12:38:16.468Z,6.87
2018-04-26T12:40:44.269Z,7.60
2018-04-26T12:43:12.090Z,8.10
2018-04-26T12:45:39.936Z,8.40
2018-04-26T12:48:07.675Z,6.73
2018-04-26T12:50:35.441Z,7.47
2018-04-26T12:53:03.006Z,10.33
2018-04-26T12:55:30.638Z,3.53
2018-04-26T12:57:58.200Z,6.13
2018-04-26T13:00:26.034Z,6.00
2018-04-26T13:02:53.839Z,7.70
2018-04-26T13:05:21.402Z,6.80
2018-04-26T13:07:49.329Z,7.27
2018-04-26T13:10:17.769Z,5.67
2018-04-26T13:12:45.328Z,4.83
2018-04-26T13:15:13.078Z,2.97
2018-04-26T13:17:40.763Z,3.03
2018-04-26T13:20:08.405Z,3.80
2018-04-26T13:22:35.972Z,4.37
2018-04-26T13:25:03.744Z,2.70
2018-04-26T13:27:31.305Z,2.57
2018-04-26T13:29:59.247Z,3.83
2018-04-26T13:32:26.848Z,2.03
2018-04-26T13:34:54.388Z,2.03
2018-04-26T13:37:22.052Z,4.43
2018-04-26T13:39:49.908Z,6.20
2018-04-26T13:42:17.464Z,3.60
2018-04-26T13:44:45.008Z,2.77
2018-04-26T13:47:12.623Z,2.47
2018-04-26T13:49:40.197Z,3.63
2018-04-26T13:52:07.824Z,9.67
2018-04-26T13:54:35.368Z,5.20
2018-04-26T13:57:02.937Z,4.37
2018-04-26T13:59:30.509Z,6.23
2018-04-26T14:01:58.133Z,15.87
2018-04-26T14:04:25.684Z,4.93
2018-04-26T14:06:53.429Z,5.93
2018-04-26T14:09:21.506Z,10.67
2018-04-26T14:11:49.273Z,6.87
2018-04-26T14:14:17.174Z,3.00
2018-04-26T14:16:44.763Z,3.13
2018-04-26T14:19:12.398Z,2.40
2018-04-26T14:21:39.953Z,4.57
2018-04-26T14:24:07.827Z,3.53
2018-04-26T14:26:35.463Z,11.93
2018-04-26T14:29:03.104Z,12.93
2018-04-26T14:31:30.846Z,5.37
2018-04-26T14:33:58.864Z,2.70
2018-04-26T14:36:26.736Z,5.03
2018-04-26T14:38:54.436Z,9.97
2018-04-26T14:41:23.281Z,5.97
2018-04-26T14:43:50.899Z,7.53
2018-04-26T14:46:18.638Z,9.90
2018-04-26T14:48:46.230Z,7.70
2018-04-26T14:51:13.773Z,4.13
2018-04-26T14:53:41.788Z,9.27
2018-04-26T14:56:09.328Z,4.07
2018-04-26T14:58:37.061Z,3.60
2018-04-26T15:01:05.793Z,6.90
2018-04-26T15:03:33.681Z,3.53
2018-04-26T15:06:01.748Z,3.67
2018-04-26T15:08:29.434Z,3.50
2018-04-26T15:10:57.872Z,3.23
2018-04-26T15:13:25.488Z,5.13
2018-04-26T15:15:53.127Z,4.17
2018-04-26T15:18:20.688Z,2.60
2018-04-26T15:20:49.024Z,3.43
2018-04-26T15:23:16.865Z,3.13
2018-04-26T15:25:44.661Z,3.10
2018-04-26T15:28:12.267Z,5.07
2018-04-26T15:30:40.378Z,10.00
2018-04-26T15:33:08.012Z,4.07
2018-04-26T15:35:35.718Z,3.23
2018-04-26T15:38:03.356Z,2.93
2018-04-26T15:40:30.904Z,7.03
2018-04-26T15:42:58.643Z,4.80
2018-04-26T15:45:26.243Z,6.00
2018-04-26T15:47:53.830Z,7.33
2018-04-26T15:53:37.324Z,4.23
2018-04-26T15:59:27.365Z,4.50
2018-04-26T16:02:22.341Z,4.20
2018-04-26T16:05:01.765Z,4.83
2018-04-26T16:07:49.750Z,5.80
2018-04-26T16:10:31.665Z,5.63
2018-04-26T16:13:17.049Z,6.93
2018-04-26T16:16:02.178Z,8.23
2018-04-26T16:21:44.576Z,7.93
2018-04-26T16:24:29.683Z,18.70
2018-04-26T16:27:14.598Z,10.83
2018-04-26T16:29:54.517Z,15.87
2018-04-26T16:32:37.184Z,13.27
2018-04-26T16:35:20.928Z,15.77
2018-04-26T16:38:06.203Z,7.00
2018-04-26T16:40:34.064Z,10.43
2018-04-26T16:43:01.678Z,9.50
2018-04-26T16:45:29.271Z,5.77
2018-04-26T16:47:56.946Z,6.70
2018-04-26T16:50:24.675Z,33.43
2018-04-26T16:52:53.108Z,6.17
2018-04-26T16:55:20.988Z,8.40
2018-04-26T16:57:48.863Z,27.07
2018-04-26T17:00:16.416Z,13.53
2018-04-26T17:02:44.017Z,10.47
2018-04-26T17:05:12.352Z,10.97
2018-04-26T17:07:40.105Z,7.47
2018-04-26T17:10:07.855Z,7.37
2018-04-26T17:12:35.408Z,37.83
2018-04-26T17:15:02.966Z,35.13
2018-04-26T17:17:31.345Z,29.13
2018-04-26T17:19:58.909Z,14.33
2018-04-26T17:22:26.580Z,11.43
2018-04-26T17:24:54.933Z,14.43
2018-04-26T17:27:22.671Z,7.43
2018-04-26T17:29:51.083Z,11.53
2018-04-26T17:32:19.022Z,57.47
2018-04-26T17:34:47.585Z,35.23
2018-04-26T17:37:15.423Z,24.83
2018-04-26T17:39:43.055Z,20.00
2018-04-26T17:42:10.819Z,24.87
2018-04-26T17:44:38.444Z,40.33
2018-04-26T17:47:06.044Z,27.10
2018-04-26T17:49:33.790Z,12.53
2018-04-26T17:52:01.437Z,11.70
2018-04-26T17:54:29.398Z,8.93
2018-04-26T17:56:58.015Z,11.20
2018-04-26T17:59:25.740Z,15.10
2018-04-26T18:01:53.464Z,12.90
2018-04-26T18:04:21.164Z,13.23
2018-04-26T18:06:49.047Z,13.23
2018-04-26T18:09:16.931Z,13.97
2018-04-26T18:11:44.507Z,20.90
2018-04-26T18:14:12.955Z,18.03
2018-04-26T18:16:40.548Z,18.03
2018-04-26T18:19:08.114Z,11.43
2018-04-26T18:21:35.867Z,11.70
2018-04-26T18:24:03.469Z,12.30
2018-04-26T18:26:31.184Z,27.80
2018-04-26T18:28:59.039Z,21.00
2018-04-26T18:31:26.632Z,28.90
2018-04-26T18:33:54.578Z,25.33
2018-04-26T18:36:22.134Z,32.93
2018-04-26T18:38:50.019Z,24.90
2018-04-26T18:41:17.749Z,27.37
2018-04-26T18:43:45.820Z,32.17
2018-04-26T18:46:13.482Z,32.17
2018-04-26T18:48:41.359Z,34.43
2018-04-26T18:51:09.772Z,34.87
2018-04-26T18:53:37.544Z,34.53
2018-04-26T18:56:05.413Z,34.17
2018-04-26T18:58:33.046Z,26.57
2018-04-26T19:01:00.901Z,26.37
2018-04-26T19:03:28.456Z,21.83
2018-04-26T19:05:56.018Z,16.57
2018-04-26T19:08:23.627Z,18.13
2018-04-26T19:10:51.188Z,16.97
2018-04-26T19:13:18.945Z,13.57
2018-04-26T19:15:46.770Z,15.20
2018-04-26T19:18:14.734Z,13.63
2018-04-26T19:20:42.659Z,10.93
2018-04-26T19:23:10.940Z,12.40
2018-04-26T19:25:39.010Z,13.90
2018-04-26T19:28:06.575Z,17.57
2018-04-26T19:30:34.651Z,16.43
2018-04-26T19:33:02.348Z,19.20
2018-04-26T19:35:30.013Z,16.23
2018-04-26T19:37:57.704Z,15.37
2018-04-26T19:40:26.020Z,16.60
2018-04-26T19:42:53.819Z,14.27
2018-04-26T19:45:21.678Z,14.67
2018-04-26T19:47:49.260Z,12.03
2018-04-26T19:50:17.126Z,10.40
2018-04-26T19:52:44.931Z,10.70
2018-04-26T19:55:12.490Z,8.23
2018-04-26T19:57:40.473Z,8.77
2018-04-26T20:00:08.147Z,8.97
2018-04-26T20:02:35.917Z,12.53
2018-04-26T20:05:03.746Z,37.63
2018-04-26T20:07:31.437Z,34.17
2018-04-26T20:09:59.510Z,32.67
2018-04-26T20:12:27.376Z,25.93
2018-04-26T20:14:55.283Z,26.17
2018-04-26T20:17:23.187Z,22.00
2018-04-26T20:19:51.223Z,17.00
2018-04-26T20:22:19.330Z,16.60
2018-04-26T20:24:46.887Z,10.90
2018-04-26T20:27:14.485Z,15.63
2018-04-26T20:29:43.013Z,16.30
2018-04-26T20:32:10.593Z,15.63
2018-04-26T20:34:38.539Z,10.47
2018-04-26T20:37:06.342Z,9.93
2018-04-26T20:39:35.401Z,17.27
2018-04-26T20:42:03.161Z,16.33
2018-04-26T20:44:42.664Z,13.60
2018-04-26T20:47:10.228Z,14.23
2018-04-26T20:49:38.886Z,54.83
2018-04-26T20:52:07.308Z,29.20
2018-04-26T20:54:34.901Z,39.73
2018-04-26T20:57:02.512Z,41.33
2018-04-26T20:59:30.720Z,39.87
2018-04-26T21:01:59.386Z,36.93
2018-04-26T21:04:27.278Z,35.00
2018-04-26T21:06:55.409Z,29.57
2018-04-26T21:09:22.997Z,27.03
2018-04-26T21:11:50.688Z,26.07
2018-04-26T21:14:18.555Z,24.03
2018-04-26T21:16:46.913Z,23.83
2018-04-26T21:19:14.666Z,17.43
2018-04-26T21:21:42.251Z,19.57
2018-04-26T21:24:10.018Z,16.43
2018-04-26T21:26:38.679Z,19.20
2018-04-26T21:29:06.590Z,22.63
2018-04-26T21:31:35.190Z,29.33
2018-04-26T21:34:02.750Z,23.93
2018-04-26T21:36:30.331Z,28.07
2018-04-26T21:38:57.888Z,27.33
2018-04-26T21:41:25.456Z,25.00
2018-04-26T21:43:53.178Z,21.33
2018-04-26T21:46:21.571Z,24.10
2018-04-26T21:48:49.432Z,26.33
2018-04-26T21:51:23.075Z,27.73
2018-04-26T21:53:56.466Z,21.03
2018-04-26T21:56:30.561Z,22.43
2018-04-26T21:59:03.828Z,27.93
2018-04-26T22:01:37.237Z,15.97
2018-04-26T22:07:06.673Z,17.57
2018-04-26T22:09:34.637Z,12.83
2018-04-26T22:12:02.334Z,13.63
2018-04-26T22:14:30.221Z,13.17
2018-04-26T22:16:58.673Z,14.40
2018-04-26T22:19:26.222Z,16.73
2018-04-26T22:21:53.794Z,12.57
2018-04-26T22:24:21.657Z,13.40
2018-04-26T22:26:49.499Z,12.77
2018-04-26T22:29:17.424Z,11.27
2018-04-26T22:31:45.868Z,11.47
2018-04-26T22:34:31.224Z,13.43
2018-04-26T22:36:58.816Z,40.23
2018-04-26T22:39:26.663Z,78.00
2018-04-26T22:41:54.381Z,21.57
2018-04-26T22:44:22.098Z,18.87
2018-04-26T22:46:49.857Z,18.57
2018-04-26T22:49:17.559Z,17.80
2018-04-26T22:51:45.109Z,43.70
2018-04-26T22:54:13.037Z,28.03
2018-04-26T22:56:40.896Z,27.07
2018-04-26T22:59:08.820Z,22.00
2018-04-26T23:01:36.586Z,25.50
2018-04-26T23:04:04.288Z,23.63
2018-04-26T23:06:32.131Z,25.00
2018-04-26T23:08:59.856Z,28.60
2018-04-26T23:11:28.504Z,23.70
2018-04-26T23:13:56.255Z,22.57
2018-04-26T23:16:23.972Z,28.33
2018-04-26T23:18:51.933Z,17.97
2018-04-26T23:21:20.397Z,20.03
2018-04-26T23:23:48.716Z,15.77
2018-04-26T23:26:17.392Z,15.63
2018-04-26T23:28:45.436Z,19.77
2018-04-26T23:31:13.946Z,14.37
2018-04-26T23:33:41.636Z,13.47
2018-04-26T23:36:09.357Z,14.83
2018-04-26T23:38:37.216Z,13.17
2018-04-26T23:41:05.268Z,14.83
2018-04-26T23:43:32.889Z,18.93
2018-04-26T23:46:00.867Z,16.13
2018-04-26T23:48:28.805Z,10.57
2018-04-26T23:50:56.466Z,14.27
2018-04-26T23:53:24.010Z,11.57
2018-04-26T23:55:51.912Z,9.37
2018-04-26T23:58:19.700Z,10.40
